HECA

Details ICAO HECA (CAI)
Name Cairo International
Region Egypt
Timezone Africa/Cairo (UTC+2.0)
Plans Departing 2919
Arriving 2878
Stats Elevation 381 ft / 116 m (AMSL)
Location 30.111400° 31.413900°
Runways 3
Magnetic Variation 4.540° E
Sunrise 2019-07-21 03:07:22 UTC / 2019-07-21 05:07:22 Local
Sunset 2019-07-21 16:56:17 UTC / 2019-07-21 18:56:17 Local
Advertisement - Login to hide

Runways

ID Width Length Bearing (true/mag) Surface Threshold Overrun Markings Lighting
05C 197 ft / 60 m 13,132 ft / 4,003 m 49.04° / 44.50° ASPHALT 0 ft / 0 m 217 ft / 66 m PREC-APP CENTERLINE EDGE THRESHOLD CALVERT-ILS TDZ REIL-OMNI
05L 197 ft / 60 m 10,840 ft / 3,304 m 49.29° / 44.75° ASPHALT 0 ft / 0 m 184 ft / 56 m PREC-APP CENTERLINE EDGE THRESHOLD CALVERT-ILS TDZ REIL-OMNI
05R 197 ft / 60 m 13,135 ft / 4,004 m 49.04° / 44.50° ASPHALT 0 ft / 0 m 217 ft / 66 m PREC-APP CENTERLINE EDGE THRESHOLD CALVERT-ILS TDZ REIL-OMNI
23C 197 ft / 60 m 13,132 ft / 4,003 m 229.05° / 224.51° ASPHALT 0 ft / 0 m 226 ft / 69 m PREC-APP CENTERLINE EDGE THRESHOLD CALVERT-ILS TDZ REIL-OMNI
23L 197 ft / 60 m 13,135 ft / 4,004 m 229.05° / 224.51° ASPHALT 0 ft / 0 m 226 ft / 69 m PREC-APP CENTERLINE EDGE THRESHOLD CALVERT-ILS TDZ REIL-OMNI
23R 197 ft / 60 m 10,840 ft / 3,304 m 229.30° / 224.76° ASPHALT 0 ft / 0 m 184 ft / 56 m PREC-APP CENTERLINE EDGE THRESHOLD CALVERT-ILS TDZ REIL-OMNI

Approach Navaids

Runway Type Ident Frequency Range Bearing (true/mag) Slope Elevation
05L GS CRL 110.90 MHz 10 nm / 19 km 49.59° / 45.05° 3.00° 230 ft / 70 m (AMSL)
05L DME CRL 110.90 MHz 18 nm / 33 km - - 230 ft / 70 m (AMSL)
05L LOC-ILS CRL 110.90 MHz 18 nm / 33 km 49.27° / 44.73° - 210 ft / 64 m (AMSL)
05R GS IROT 109.90 MHz 10 nm / 19 km 49.08° / 44.54° 3.00° 430 ft / 131 m (AMSL)
05R DME IROT 109.90 MHz 18 nm / 33 km - - 430 ft / 131 m (AMSL)
05R LOC-ILS IROT 109.90 MHz 18 nm / 33 km 49.04° / 44.50° - 410 ft / 125 m (AMSL)
23L LOC-ILS ILOT 109.50 MHz 18 nm / 33 km 229.08° / 224.54° - 420 ft / 128 m (AMSL)
23L GS ILOT 109.50 MHz 10 nm / 19 km 229.08° / 224.54° 3.00° 420 ft / 128 m (AMSL)
23L DME ILOT 109.50 MHz 18 nm / 33 km - - 420 ft / 128 m (AMSL)
23R DME CRR 110.30 MHz 18 nm / 33 km - - 230 ft / 70 m (AMSL)
23R LOC-ILS CRR 110.30 MHz 18 nm / 33 km 229.29° / 224.75° - 210 ft / 64 m (AMSL)
23R GS CRR 110.30 MHz 10 nm / 19 km 229.59° / 225.05° 3.00° 230 ft / 70 m (AMSL)

Map

Weather


0- 5 10 15 20 25 30 35+ Temperature / °C

Clouds and Precipitation
Forecast for 2019-07-21 00:00 UTC. Updated an hour ago

Ground ~20,000 ft ~40,000 ft Winds

METAR

HECA 202230Z 35006KT CAVOK 26/19 Q1013 NOSIG

TAF

TAF HECA 201700Z 2018/2124 36012KT CAVOK= TAF HEAX 201700Z 2018/2124 33009KT 9999 FEW020

Frequencies

Recorded 122.60 MHz ATIS
Tower 118.10 MHz
Approach 119.55 MHz
Ground 126.37 MHz
Warning: Do not use this data for real-world aviation or navigation. No guarantee of current accuracy is given.